createdAt,value
2023-04-08T05:00:36.309Z,6.17
2023-04-08T05:05:37.836Z,6.22
2023-04-08T05:10:41.193Z,6.28
2023-04-08T05:15:42.890Z,6.36
2023-04-08T05:20:44.360Z,6.37
2023-04-08T05:25:45.990Z,6.36
2023-04-08T05:30:52.020Z,6.37
2023-04-08T05:35:53.607Z,6.40
2023-04-08T05:40:55.601Z,6.39
2023-04-08T05:45:57.104Z,6.38
2023-04-08T05:50:58.521Z,6.42
2023-04-08T05:55:59.945Z,6.44
2023-04-08T06:01:01.547Z,6.44
2023-04-08T06:06:03.131Z,6.53
2023-04-08T06:11:05.200Z,6.62
2023-04-08T06:16:14.678Z,6.65
2023-04-08T06:21:16.535Z,6.64
2023-04-08T06:26:18.057Z,6.69
2023-04-08T06:31:19.600Z,6.77
2023-04-08T06:36:21.065Z,6.82
2023-04-08T06:41:22.501Z,6.86
2023-04-08T06:46:25.569Z,6.90
2023-04-08T06:51:27.816Z,6.98
2023-04-08T06:56:29.263Z,7.07
2023-04-08T07:01:31.970Z,7.16
2023-04-08T07:06:33.452Z,7.24
2023-04-08T07:11:35.018Z,7.38
2023-04-08T07:16:36.542Z,7.44
2023-04-08T07:21:37.987Z,7.51
2023-04-08T07:26:39.545Z,7.54
2023-04-08T07:31:42.684Z,7.55
2023-04-08T07:36:44.268Z,7.55
2023-04-08T07:41:45.963Z,7.57
2023-04-08T07:46:51.399Z,7.67
2023-04-08T07:51:53.119Z,7.85
2023-04-08T07:56:54.626Z,8.08
2023-04-08T08:01:56.379Z,8.30
2023-04-08T08:06:58.098Z,8.40
2023-04-08T08:11:59.671Z,8.51
2023-04-08T08:17:01.472Z,8.67
2023-04-08T08:22:03.020Z,8.73
2023-04-08T08:27:06.597Z,8.72
2023-04-08T08:32:08.495Z,8.78
2023-04-08T08:37:10.308Z,8.74
2023-04-08T08:42:23.275Z,8.88
2023-04-08T08:47:24.916Z,8.93
2023-04-08T08:52:26.433Z,8.94
2023-04-08T08:57:27.963Z,8.99
2023-04-08T09:02:32.310Z,8.96
2023-04-08T09:07:40.567Z,8.93
2023-04-08T09:12:56.580Z,8.93
2023-04-08T09:17:58.778Z,9.05
2023-04-08T09:23:02.304Z,9.24
2023-04-08T09:28:03.883Z,9.38
2023-04-08T09:33:07.324Z,9.55
2023-04-08T09:38:09.237Z,9.66
2023-04-08T09:43:15.899Z,9.70
2023-04-08T09:48:21.957Z,9.69
2023-04-08T09:53:36.701Z,9.63
2023-04-08T09:58:49.656Z,9.61
2023-04-08T10:03:54.454Z,9.66
2023-04-08T10:08:57.076Z,9.70
2023-04-08T10:13:58.807Z,9.75
2023-04-08T10:19:00.444Z,9.82
2023-04-08T10:24:07.747Z,9.94
2023-04-08T10:29:18.442Z,10.08
2023-04-08T10:34:22.867Z,10.07
2023-04-08T10:39:26.012Z,10.05
2023-04-08T10:44:27.676Z,10.09
2023-04-08T10:49:33.687Z,10.14
2023-04-08T10:54:36.333Z,10.26
2023-04-08T10:59:39.694Z,10.48
2023-04-08T11:04:44.833Z,10.80
2023-04-08T11:09:46.352Z,10.80
2023-04-08T11:14:49.668Z,10.80
2023-04-08T11:19:52.620Z,10.72
2023-04-08T11:24:56.222Z,10.60
2023-04-08T11:29:57.942Z,10.38
2023-04-08T11:35:05.027Z,10.21
2023-04-08T11:40:11.325Z,10.15
2023-04-08T11:45:16.062Z,10.09
2023-04-08T11:50:25.503Z,10.09
2023-04-08T11:55:28.224Z,10.08
2023-04-08T12:00:31.109Z,10.21
2023-04-08T12:05:32.622Z,10.40
2023-04-08T12:10:34.131Z,10.62
2023-04-08T12:15:35.621Z,10.73
2023-04-08T12:20:37.110Z,10.69
2023-04-08T12:25:38.980Z,10.54
2023-04-08T12:30:40.924Z,10.39
2023-04-08T12:35:43.384Z,10.25
2023-04-08T12:40:44.915Z,10.08
2023-04-08T12:45:46.828Z,9.91
2023-04-08T12:50:48.370Z,9.82
2023-04-08T12:55:51.352Z,9.73
2023-04-08T13:00:52.912Z,9.67
2023-04-08T13:05:54.436Z,9.70
2023-04-08T13:10:55.976Z,9.74
2023-04-08T13:15:57.780Z,9.68
2023-04-08T13:21:02.302Z,9.66
2023-04-08T13:26:03.835Z,9.61
2023-04-08T13:31:05.743Z,9.59
2023-04-08T13:36:07.294Z,9.59
2023-04-08T13:41:08.789Z,9.64
2023-04-08T13:46:10.351Z,9.81
2023-04-08T13:51:11.971Z,9.93
2023-04-08T13:56:13.543Z,10.22
2023-04-08T14:01:15.090Z,10.40
2023-04-08T14:06:16.581Z,10.40
2023-04-08T14:11:18.055Z,10.50
2023-04-08T14:16:19.575Z,10.65
2023-04-08T14:21:21.184Z,10.79
2023-04-08T14:26:22.643Z,10.85
2023-04-08T14:31:24.241Z,10.86
2023-04-08T14:36:27.830Z,10.88
2023-04-08T14:55:47.019Z,10.15
2023-04-08T15:00:48.582Z,10.08
2023-04-08T15:05:50.204Z,10.02
2023-04-08T15:10:51.771Z,9.95
2023-04-08T15:15:53.224Z,9.89
2023-04-08T15:20:54.837Z,9.88
2023-04-08T15:25:57.495Z,9.89
2023-04-08T15:30:59.006Z,9.87
2023-04-08T15:36:03.843Z,9.83
2023-04-08T15:41:05.602Z,9.81
2023-04-08T15:46:07.202Z,9.80
2023-04-08T15:51:09.080Z,9.81
2023-04-08T15:56:16.664Z,9.81
2023-04-08T16:01:19.980Z,9.75
2023-04-08T16:06:21.478Z,9.66
2023-04-08T16:11:23.682Z,9.63
2023-04-08T16:16:25.243Z,9.57
2023-04-08T16:21:26.683Z,9.53
2023-04-08T16:26:28.626Z,9.44
2023-04-08T16:36:33.035Z,9.30
2023-04-08T16:41:34.431Z,9.24
2023-04-08T16:46:36.512Z,9.19
2023-04-08T16:51:37.964Z,9.15
2023-04-08T16:56:44.134Z,9.09
2023-04-08T17:01:45.703Z,9.05
2023-04-08T17:06:47.105Z,9.02
2023-04-08T17:11:48.551Z,9.00
2023-04-08T17:16:50.452Z,8.94
2023-04-08T17:21:52.011Z,8.87
2023-04-08T17:26:53.478Z,8.82
2023-04-08T17:31:54.915Z,8.74
2023-04-08T17:36:57.137Z,8.69
2023-04-08T17:41:58.627Z,8.66
2023-04-08T17:47:00.532Z,8.62
2023-04-08T17:52:02.125Z,8.50
2023-04-08T17:57:03.936Z,8.29
2023-04-08T18:02:05.411Z,8.04
2023-04-08T18:07:06.889Z,7.83
2023-04-08T18:12:08.276Z,7.67
2023-04-08T18:17:09.749Z,7.55
2023-04-08T18:22:11.293Z,7.48
2023-04-08T18:27:12.761Z,7.42
2023-04-08T18:32:14.156Z,7.37
2023-04-08T18:37:16.892Z,7.34
2023-04-08T18:42:18.435Z,7.32
2023-04-08T18:47:20.024Z,7.35
2023-04-08T18:52:21.429Z,7.35
2023-04-08T18:57:22.924Z,7.28
2023-04-08T19:02:24.495Z,7.15
2023-04-08T19:07:27.256Z,7.01
2023-04-08T19:12:28.664Z,6.88
2023-04-08T19:17:30.632Z,6.77
2023-04-08T19:22:32.770Z,6.68
2023-04-08T19:27:34.164Z,6.58
2023-04-08T19:32:36.226Z,6.53
2023-04-08T19:37:37.643Z,6.45
2023-04-08T19:42:39.066Z,6.43
2023-04-08T19:47:43.123Z,6.40
2023-04-08T19:52:44.624Z,6.35
2023-04-08T19:57:46.051Z,6.31
2023-04-08T20:02:47.857Z,6.27
2023-04-08T20:07:49.829Z,6.22
2023-04-08T20:12:52.566Z,6.17
2023-04-08T20:17:54.092Z,6.09
2023-04-08T20:22:56.011Z,6.04
2023-04-08T20:27:57.442Z,6.00
2023-04-08T20:32:58.896Z,5.94
2023-04-08T20:38:00.346Z,5.88
2023-04-08T20:43:02.321Z,5.83
2023-04-08T20:48:05.511Z,5.77
2023-04-08T20:53:07.570Z,5.71
2023-04-08T20:58:09.235Z,5.65
2023-04-08T21:03:10.760Z,5.61
2023-04-08T21:08:12.390Z,5.54
2023-04-08T21:13:13.809Z,5.46
2023-04-08T21:18:15.329Z,5.41
2023-04-08T21:23:16.805Z,5.31
2023-04-08T21:28:18.231Z,5.30
2023-04-08T21:33:19.648Z,5.29
2023-04-08T21:38:21.087Z,5.29
2023-04-08T21:43:22.624Z,5.28
2023-04-08T21:48:24.080Z,5.26
2023-04-08T21:53:25.518Z,5.23
2023-04-08T21:58:28.101Z,5.20
